sensor_id;sensor_type;location;lat;lon;timestamp;P1;durP1;ratioP1;P2;durP2;ratioP2
64966;SDS011;51710;38.732;-121.358;2023-05-07T00:02:10;4.60;;;1.35;;
64966;SDS011;51710;38.732;-121.358;2023-05-07T00:04:36;2.05;;;1.10;;
64966;SDS011;51710;38.732;-121.358;2023-05-07T00:07:04;3.05;;;1.10;;
64966;SDS011;51710;38.732;-121.358;2023-05-07T00:09:30;3.85;;;1.15;;
64966;SDS011;51710;38.732;-121.358;2023-05-07T00:11:57;3.65;;;1.20;;
64966;SDS011;51710;38.732;-121.358;2023-05-07T00:14:23;4.32;;;1.20;;
64966;SDS011;51710;38.732;-121.358;2023-05-07T00:16:49;3.03;;;1.25;;
64966;SDS011;51710;38.732;-121.358;2023-05-07T00:19:15;1.33;;;1.10;;
64966;SDS011;51710;38.732;-121.358;2023-05-07T00:21:42;2.03;;;0.90;;
64966;SDS011;51710;38.732;-121.358;2023-05-07T00:24:08;1.50;;;0.93;;
64966;SDS011;51710;38.732;-121.358;2023-05-07T00:26:34;1.85;;;0.70;;
64966;SDS011;51710;38.732;-121.358;2023-05-07T00:29:00;2.17;;;0.75;;
64966;SDS011;51710;38.732;-121.358;2023-05-07T00:31:26;1.75;;;0.60;;
64966;SDS011;51710;38.732;-121.358;2023-05-07T00:33:53;1.15;;;0.60;;
64966;SDS011;51710;38.732;-121.358;2023-05-07T00:36:19;0.77;;;0.50;;
64966;SDS011;51710;38.732;-121.358;2023-05-07T00:38:45;1.75;;;1.20;;
64966;SDS011;51710;38.732;-121.358;2023-05-07T00:41:14;1.63;;;0.88;;
64966;SDS011;51710;38.732;-121.358;2023-05-07T00:43:41;2.47;;;0.98;;
64966;SDS011;51710;38.732;-121.358;2023-05-07T00:46:07;1.17;;;0.70;;
64966;SDS011;51710;38.732;-121.358;2023-05-07T00:48:33;0.90;;;0.68;;
64966;SDS011;51710;38.732;-121.358;2023-05-07T00:51:00;1.27;;;0.60;;
64966;SDS011;51710;38.732;-121.358;2023-05-07T00:53:26;0.98;;;0.55;;
64966;SDS011;51710;38.732;-121.358;2023-05-07T00:55:53;0.52;;;0.52;;
64966;SDS011;51710;38.732;-121.358;2023-05-07T00:58:19;0.60;;;0.52;;
64966;SDS011;51710;38.732;-121.358;2023-05-07T01:00:46;0.50;;;0.50;;
64966;SDS011;51710;38.732;-121.358;2023-05-07T01:03:12;0.60;;;0.52;;
64966;SDS011;51710;38.732;-121.358;2023-05-07T01:05:39;0.68;;;0.60;;
64966;SDS011;51710;38.732;-121.358;2023-05-07T01:08:06;0.80;;;0.70;;
64966;SDS011;51710;38.732;-121.358;2023-05-07T01:10:33;1.83;;;0.60;;
64966;SDS011;51710;38.732;-121.358;2023-05-07T01:12:59;4.03;;;0.52;;
64966;SDS011;51710;38.732;-121.358;2023-05-07T01:15:26;1.05;;;0.65;;
64966;SDS011;51710;38.732;-121.358;2023-05-07T01:17:53;1.00;;;0.60;;
64966;SDS011;51710;38.732;-121.358;2023-05-07T01:20:19;0.70;;;0.60;;
64966;SDS011;51710;38.732;-121.358;2023-05-07T01:22:45;2.17;;;0.60;;
64966;SDS011;51710;38.732;-121.358;2023-05-07T01:25:12;2.55;;;0.57;;
64966;SDS011;51710;38.732;-121.358;2023-05-07T01:27:38;2.15;;;0.63;;
64966;SDS011;51710;38.732;-121.358;2023-05-07T01:30:05;1.13;;;0.70;;
64966;SDS011;51710;38.732;-121.358;2023-05-07T01:32:33;1.65;;;0.70;;
64966;SDS011;51710;38.732;-121.358;2023-05-07T01:35:08;1.02;;;0.52;;
64966;SDS011;51710;38.732;-121.358;2023-05-07T01:37:38;2.13;;;0.70;;
64966;SDS011;51710;38.732;-121.358;2023-05-07T01:40:05;1.15;;;0.50;;
64966;SDS011;51710;38.732;-121.358;2023-05-07T01:42:32;3.03;;;0.60;;
64966;SDS011;51710;38.732;-121.358;2023-05-07T01:44:59;0.63;;;0.50;;
64966;SDS011;51710;38.732;-121.358;2023-05-07T01:47:25;1.15;;;0.70;;
64966;SDS011;51710;38.732;-121.358;2023-05-07T01:49:52;2.17;;;0.60;;
64966;SDS011;51710;38.732;-121.358;2023-05-07T01:52:19;1.10;;;0.70;;
64966;SDS011;51710;38.732;-121.358;2023-05-07T01:54:45;1.38;;;0.60;;
64966;SDS011;51710;38.732;-121.358;2023-05-07T01:57:11;0.98;;;0.70;;
64966;SDS011;51710;38.732;-121.358;2023-05-07T01:59:38;2.60;;;0.80;;
64966;SDS011;51710;38.732;-121.358;2023-05-07T02:02:04;1.27;;;0.70;;
64966;SDS011;51710;38.732;-121.358;2023-05-07T02:04:30;1.77;;;0.70;;
64966;SDS011;51710;38.732;-121.358;2023-05-07T02:06:56;1.13;;;0.80;;
64966;SDS011;51710;38.732;-121.358;2023-05-07T02:09:23;1.33;;;0.60;;
64966;SDS011;51710;38.732;-121.358;2023-05-07T02:11:49;1.58;;;0.90;;
64966;SDS011;51710;38.732;-121.358;2023-05-07T02:14:15;1.90;;;0.60;;
64966;SDS011;51710;38.732;-121.358;2023-05-07T02:16:42;2.72;;;0.65;;
64966;SDS011;51710;38.732;-121.358;2023-05-07T02:19:08;1.33;;;0.55;;
64966;SDS011;51710;38.732;-121.358;2023-05-07T02:21:34;2.88;;;0.65;;
64966;SDS011;51710;38.732;-121.358;2023-05-07T02:24:00;3.20;;;1.35;;
64966;SDS011;51710;38.732;-121.358;2023-05-07T02:26:27;6.15;;;2.05;;
64966;SDS011;51710;38.732;-121.358;2023-05-07T02:28:53;3.67;;;1.60;;
64966;SDS011;51710;38.732;-121.358;2023-05-07T02:31:19;5.25;;;1.45;;
64966;SDS011;51710;38.732;-121.358;2023-05-07T02:33:45;2.13;;;1.00;;
64966;SDS011;51710;38.732;-121.358;2023-05-07T02:36:12;7.38;;;3.58;;
64966;SDS011;51710;38.732;-121.358;2023-05-07T02:38:38;3.47;;;1.75;;
64966;SDS011;51710;38.732;-121.358;2023-05-07T02:41:04;4.18;;;1.85;;
64966;SDS011;51710;38.732;-121.358;2023-05-07T02:43:31;2.38;;;1.20;;
64966;SDS011;51710;38.732;-121.358;2023-05-07T02:46:15;1.30;;;0.80;;
64966;SDS011;51710;38.732;-121.358;2023-05-07T02:48:41;1.35;;;1.10;;
64966;SDS011;51710;38.732;-121.358;2023-05-07T02:51:08;1.25;;;0.85;;
64966;SDS011;51710;38.732;-121.358;2023-05-07T02:53:34;3.65;;;0.70;;
64966;SDS011;51710;38.732;-121.358;2023-05-07T02:56:00;2.88;;;0.70;;
64966;SDS011;51710;38.732;-121.358;2023-05-07T02:58:27;1.45;;;0.88;;
64966;SDS011;51710;38.732;-121.358;2023-05-07T03:00:53;1.10;;;0.60;;
64966;SDS011;51710;38.732;-121.358;2023-05-07T03:03:20;0.90;;;0.80;;
64966;SDS011;51710;38.732;-121.358;2023-05-07T03:05:46;3.00;;;0.82;;
64966;SDS011;51710;38.732;-121.358;2023-05-07T03:08:12;1.23;;;0.82;;
64966;SDS011;51710;38.732;-121.358;2023-05-07T03:10:39;2.38;;;0.77;;
64966;SDS011;51710;38.732;-121.358;2023-05-07T03:13:05;1.35;;;0.90;;
64966;SDS011;51710;38.732;-121.358;2023-05-07T03:15:31;1.85;;;0.73;;
64966;SDS011;51710;38.732;-121.358;2023-05-07T03:17:58;5.43;;;1.10;;
64966;SDS011;51710;38.732;-121.358;2023-05-07T03:20:24;3.78;;;1.35;;
64966;SDS011;51710;38.732;-121.358;2023-05-07T03:22:50;1.30;;;0.80;;
64966;SDS011;51710;38.732;-121.358;2023-05-07T03:25:16;1.02;;;0.88;;
64966;SDS011;51710;38.732;-121.358;2023-05-07T03:27:43;2.50;;;0.90;;
64966;SDS011;51710;38.732;-121.358;2023-05-07T03:30:09;2.58;;;1.30;;
64966;SDS011;51710;38.732;-121.358;2023-05-07T03:32:36;2.20;;;1.00;;
64966;SDS011;51710;38.732;-121.358;2023-05-07T03:35:02;3.35;;;1.00;;
64966;SDS011;51710;38.732;-121.358;2023-05-07T03:37:29;1.92;;;1.10;;
64966;SDS011;51710;38.732;-121.358;2023-05-07T03:39:55;1.92;;;0.90;;
64966;SDS011;51710;38.732;-121.358;2023-05-07T03:42:21;1.50;;;1.10;;
64966;SDS011;51710;38.732;-121.358;2023-05-07T03:44:48;14.20;;;6.28;;
64966;SDS011;51710;38.732;-121.358;2023-05-07T03:47:14;10.07;;;5.90;;
64966;SDS011;51710;38.732;-121.358;2023-05-07T03:49:40;10.20;;;6.00;;
64966;SDS011;51710;38.732;-121.358;2023-05-07T03:52:06;6.75;;;3.10;;
64966;SDS011;51710;38.732;-121.358;2023-05-07T03:54:33;4.07;;;2.10;;
64966;SDS011;51710;38.732;-121.358;2023-05-07T03:56:59;4.65;;;1.70;;
64966;SDS011;51710;38.732;-121.358;2023-05-07T03:59:25;2.13;;;1.00;;
64966;SDS011;51710;38.732;-121.358;2023-05-07T04:01:51;2.13;;;0.85;;
64966;SDS011;51710;38.732;-121.358;2023-05-07T04:04:18;3.55;;;1.20;;
64966;SDS011;51710;38.732;-121.358;2023-05-07T04:06:44;1.92;;;0.80;;
64966;SDS011;51710;38.732;-121.358;2023-05-07T04:09:10;1.20;;;0.88;;
64966;SDS011;51710;38.732;-121.358;2023-05-07T04:11:36;3.35;;;1.20;;
64966;SDS011;51710;38.732;-121.358;2023-05-07T04:14:03;1.48;;;0.80;;
64966;SDS011;51710;38.732;-121.358;2023-05-07T04:16:29;2.60;;;1.00;;
64966;SDS011;51710;38.732;-121.358;2023-05-07T04:18:56;2.25;;;0.98;;
64966;SDS011;51710;38.732;-121.358;2023-05-07T04:21:22;2.88;;;0.80;;
64966;SDS011;51710;38.732;-121.358;2023-05-07T04:23:48;1.98;;;0.95;;
64966;SDS011;51710;38.732;-121.358;2023-05-07T04:26:15;3.08;;;1.65;;
64966;SDS011;51710;38.732;-121.358;2023-05-07T04:28:41;3.88;;;2.10;;
64966;SDS011;51710;38.732;-121.358;2023-05-07T04:31:08;3.22;;;1.40;;
64966;SDS011;51710;38.732;-121.358;2023-05-07T04:33:34;1.42;;;0.80;;
64966;SDS011;51710;38.732;-121.358;2023-05-07T04:36:03;2.80;;;1.10;;
64966;SDS011;51710;38.732;-121.358;2023-05-07T04:38:30;2.28;;;1.20;;
64966;SDS011;51710;38.732;-121.358;2023-05-07T04:40:57;2.95;;;1.15;;
64966;SDS011;51710;38.732;-121.358;2023-05-07T04:43:34;3.67;;;1.27;;
64966;SDS011;51710;38.732;-121.358;2023-05-07T04:46:00;1.77;;;1.00;;
64966;SDS011;51710;38.732;-121.358;2023-05-07T04:48:26;2.97;;;1.17;;
64966;SDS011;51710;38.732;-121.358;2023-05-07T04:50:54;1.88;;;0.90;;
64966;SDS011;51710;38.732;-121.358;2023-05-07T04:53:20;3.33;;;1.00;;
64966;SDS011;51710;38.732;-121.358;2023-05-07T04:55:47;4.13;;;1.10;;
64966;SDS011;51710;38.732;-121.358;2023-05-07T04:58:13;1.52;;;0.90;;
64966;SDS011;51710;38.732;-121.358;2023-05-07T05:00:39;3.13;;;1.15;;
64966;SDS011;51710;38.732;-121.358;2023-05-07T05:03:06;2.28;;;1.20;;
64966;SDS011;51710;38.732;-121.358;2023-05-07T05:05:32;2.83;;;1.10;;
64966;SDS011;51710;38.732;-121.358;2023-05-07T05:07:59;2.60;;;0.90;;
64966;SDS011;51710;38.732;-121.358;2023-05-07T05:10:25;3.80;;;1.17;;
64966;SDS011;51710;38.732;-121.358;2023-05-07T05:12:51;2.78;;;1.35;;
64966;SDS011;51710;38.732;-121.358;2023-05-07T05:15:17;6.05;;;1.30;;
64966;SDS011;51710;38.732;-121.358;2023-05-07T05:17:44;3.13;;;1.15;;
64966;SDS011;51710;38.732;-121.358;2023-05-07T05:20:10;5.20;;;1.20;;
64966;SDS011;51710;38.732;-121.358;2023-05-07T05:22:37;4.03;;;1.25;;
64966;SDS011;51710;38.732;-121.358;2023-05-07T05:25:03;2.38;;;1.33;;
64966;SDS011;51710;38.732;-121.358;2023-05-07T05:27:30;2.05;;;1.27;;
64966;SDS011;51710;38.732;-121.358;2023-05-07T05:29:56;2.78;;;1.17;;
64966;SDS011;51710;38.732;-121.358;2023-05-07T05:32:22;3.72;;;1.48;;
64966;SDS011;51710;38.732;-121.358;2023-05-07T05:34:48;2.03;;;1.17;;
64966;SDS011;51710;38.732;-121.358;2023-05-07T05:37:15;1.85;;;1.20;;
64966;SDS011;51710;38.732;-121.358;2023-05-07T05:39:41;2.70;;;0.98;;
64966;SDS011;51710;38.732;-121.358;2023-05-07T05:42:08;4.10;;;1.42;;
64966;SDS011;51710;38.732;-121.358;2023-05-07T05:44:34;1.80;;;0.95;;
64966;SDS011;51710;38.732;-121.358;2023-05-07T05:47:00;3.35;;;1.15;;
64966;SDS011;51710;38.732;-121.358;2023-05-07T05:49:26;4.88;;;1.17;;
64966;SDS011;51710;38.732;-121.358;2023-05-07T05:51:52;2.53;;;1.55;;
64966;SDS011;51710;38.732;-121.358;2023-05-07T05:54:19;3.65;;;1.10;;
64966;SDS011;51710;38.732;-121.358;2023-05-07T05:56:45;1.90;;;1.08;;
64966;SDS011;51710;38.732;-121.358;2023-05-07T05:59:11;2.42;;;1.30;;
64966;SDS011;51710;38.732;-121.358;2023-05-07T06:01:38;3.20;;;1.30;;
64966;SDS011;51710;38.732;-121.358;2023-05-07T06:04:04;3.92;;;1.50;;
64966;SDS011;51710;38.732;-121.358;2023-05-07T06:06:30;1.95;;;1.25;;
64966;SDS011;51710;38.732;-121.358;2023-05-07T06:08:57;2.75;;;1.00;;
64966;SDS011;51710;38.732;-121.358;2023-05-07T06:11:23;2.17;;;1.30;;
64966;SDS011;51710;38.732;-121.358;2023-05-07T06:13:50;3.65;;;1.38;;
64966;SDS011;51710;38.732;-121.358;2023-05-07T06:16:16;2.38;;;1.50;;
64966;SDS011;51710;38.732;-121.358;2023-05-07T06:18:43;3.50;;;1.40;;
64966;SDS011;51710;38.732;-121.358;2023-05-07T06:21:11;4.00;;;2.33;;
64966;SDS011;51710;38.732;-121.358;2023-05-07T06:23:38;4.78;;;1.55;;
64966;SDS011;51710;38.732;-121.358;2023-05-07T06:26:06;4.60;;;1.40;;
64966;SDS011;51710;38.732;-121.358;2023-05-07T06:28:32;3.55;;;1.70;;
64966;SDS011;51710;38.732;-121.358;2023-05-07T06:31:14;3.38;;;1.67;;
64966;SDS011;51710;38.732;-121.358;2023-05-07T06:33:42;3.35;;;1.60;;
64966;SDS011;51710;38.732;-121.358;2023-05-07T06:36:09;3.50;;;1.60;;
64966;SDS011;51710;38.732;-121.358;2023-05-07T06:38:36;5.90;;;1.90;;
64966;SDS011;51710;38.732;-121.358;2023-05-07T06:41:02;3.33;;;1.63;;
64966;SDS011;51710;38.732;-121.358;2023-05-07T06:43:28;4.80;;;1.30;;
64966;SDS011;51710;38.732;-121.358;2023-05-07T06:45:54;3.00;;;1.40;;
64966;SDS011;51710;38.732;-121.358;2023-05-07T06:48:20;3.53;;;1.35;;
64966;SDS011;51710;38.732;-121.358;2023-05-07T06:50:47;1.92;;;1.20;;
64966;SDS011;51710;38.732;-121.358;2023-05-07T06:53:13;3.25;;;1.50;;
64966;SDS011;51710;38.732;-121.358;2023-05-07T06:55:39;6.50;;;2.38;;
64966;SDS011;51710;38.732;-121.358;2023-05-07T06:58:06;3.40;;;1.40;;
64966;SDS011;51710;38.732;-121.358;2023-05-07T07:00:33;5.05;;;1.67;;
64966;SDS011;51710;38.732;-121.358;2023-05-07T07:03:00;4.03;;;1.33;;
64966;SDS011;51710;38.732;-121.358;2023-05-07T07:05:26;2.53;;;1.40;;
64966;SDS011;51710;38.732;-121.358;2023-05-07T07:07:52;4.03;;;1.48;;
64966;SDS011;51710;38.732;-121.358;2023-05-07T07:10:22;3.97;;;1.35;;
64966;SDS011;51710;38.732;-121.358;2023-05-07T07:12:48;2.47;;;1.30;;
64966;SDS011;51710;38.732;-121.358;2023-05-07T07:15:15;5.10;;;1.58;;
64966;SDS011;51710;38.732;-121.358;2023-05-07T07:17:41;4.40;;;1.50;;
64966;SDS011;51710;38.732;-121.358;2023-05-07T07:20:08;3.05;;;1.40;;
64966;SDS011;51710;38.732;-121.358;2023-05-07T07:22:35;2.42;;;1.30;;
64966;SDS011;51710;38.732;-121.358;2023-05-07T07:25:01;2.33;;;1.10;;
64966;SDS011;51710;38.732;-121.358;2023-05-07T07:27:27;5.65;;;1.55;;
64966;SDS011;51710;38.732;-121.358;2023-05-07T07:29:53;3.42;;;1.33;;
64966;SDS011;51710;38.732;-121.358;2023-05-07T07:32:19;2.60;;;1.15;;
64966;SDS011;51710;38.732;-121.358;2023-05-07T07:34:46;2.22;;;1.30;;
64966;SDS011;51710;38.732;-121.358;2023-05-07T07:37:12;1.67;;;1.10;;
64966;SDS011;51710;38.732;-121.358;2023-05-07T07:39:38;3.00;;;1.42;;
64966;SDS011;51710;38.732;-121.358;2023-05-07T07:42:04;2.13;;;1.20;;
64966;SDS011;51710;38.732;-121.358;2023-05-07T07:44:30;3.40;;;1.45;;
64966;SDS011;51710;38.732;-121.358;2023-05-07T07:46:57;4.03;;;1.55;;
64966;SDS011;51710;38.732;-121.358;2023-05-07T07:49:23;2.47;;;1.40;;
64966;SDS011;51710;38.732;-121.358;2023-05-07T07:51:49;2.58;;;1.20;;
64966;SDS011;51710;38.732;-121.358;2023-05-07T07:54:16;3.10;;;1.33;;
64966;SDS011;51710;38.732;-121.358;2023-05-07T07:56:42;3.42;;;1.17;;
64966;SDS011;51710;38.732;-121.358;2023-05-07T07:59:09;4.68;;;1.23;;
64966;SDS011;51710;38.732;-121.358;2023-05-07T08:01:35;3.35;;;1.10;;
64966;SDS011;51710;38.732;-121.358;2023-05-07T08:04:01;4.60;;;1.75;;
64966;SDS011;51710;38.732;-121.358;2023-05-07T08:06:28;2.70;;;1.20;;
64966;SDS011;51710;38.732;-121.358;2023-05-07T08:08:55;4.78;;;1.20;;
64966;SDS011;51710;38.732;-121.358;2023-05-07T08:11:24;2.10;;;1.25;;
64966;SDS011;51710;38.732;-121.358;2023-05-07T08:13:51;2.47;;;1.23;;
64966;SDS011;51710;38.732;-121.358;2023-05-07T08:16:17;3.63;;;1.20;;
64966;SDS011;51710;38.732;-121.358;2023-05-07T08:18:43;2.78;;;1.10;;
64966;SDS011;51710;38.732;-121.358;2023-05-07T08:21:10;2.17;;;1.13;;
64966;SDS011;51710;38.732;-121.358;2023-05-07T08:23:36;4.22;;;2.10;;
64966;SDS011;51710;38.732;-121.358;2023-05-07T08:26:02;3.58;;;1.60;;
64966;SDS011;51710;38.732;-121.358;2023-05-07T08:28:29;1.95;;;1.13;;
64966;SDS011;51710;38.732;-121.358;2023-05-07T08:30:55;2.42;;;1.25;;
64966;SDS011;51710;38.732;-121.358;2023-05-07T08:33:26;3.13;;;1.25;;
64966;SDS011;51710;38.732;-121.358;2023-05-07T08:35:52;4.28;;;1.00;;
64966;SDS011;51710;38.732;-121.358;2023-05-07T08:38:18;2.60;;;1.20;;
64966;SDS011;51710;38.732;-121.358;2023-05-07T08:40:45;2.63;;;1.40;;
64966;SDS011;51710;38.732;-121.358;2023-05-07T08:43:12;3.72;;;1.40;;
64966;SDS011;51710;38.732;-121.358;2023-05-07T08:45:39;4.40;;;1.13;;
64966;SDS011;51710;38.732;-121.358;2023-05-07T08:48:13;3.28;;;1.35;;
64966;SDS011;51710;38.732;-121.358;2023-05-07T08:50:41;1.42;;;0.90;;
64966;SDS011;51710;38.732;-121.358;2023-05-07T08:53:07;3.20;;;1.20;;
64966;SDS011;51710;38.732;-121.358;2023-05-07T08:55:34;2.92;;;1.27;;
64966;SDS011;51710;38.732;-121.358;2023-05-07T08:58:00;3.30;;;1.50;;
64966;SDS011;51710;38.732;-121.358;2023-05-07T09:00:26;1.33;;;0.90;;
64966;SDS011;51710;38.732;-121.358;2023-05-07T09:02:53;2.38;;;1.20;;
64966;SDS011;51710;38.732;-121.358;2023-05-07T09:05:19;2.15;;;1.13;;
64966;SDS011;51710;38.732;-121.358;2023-05-07T09:07:46;3.53;;;1.08;;
64966;SDS011;51710;38.732;-121.358;2023-05-07T09:10:13;2.28;;;1.40;;
64966;SDS011;51710;38.732;-121.358;2023-05-07T09:12:39;4.13;;;1.08;;
64966;SDS011;51710;38.732;-121.358;2023-05-07T09:15:06;2.53;;;1.20;;
64966;SDS011;51710;38.732;-121.358;2023-05-07T09:17:33;2.05;;;1.17;;
64966;SDS011;51710;38.732;-121.358;2023-05-07T09:20:02;1.65;;;1.00;;
64966;SDS011;51710;38.732;-121.358;2023-05-07T09:22:33;3.55;;;1.25;;
64966;SDS011;51710;38.732;-121.358;2023-05-07T09:25:02;1.65;;;0.90;;
64966;SDS011;51710;38.732;-121.358;2023-05-07T09:27:28;2.95;;;1.30;;
64966;SDS011;51710;38.732;-121.358;2023-05-07T09:29:55;1.90;;;1.35;;
64966;SDS011;51710;38.732;-121.358;2023-05-07T09:32:22;4.57;;;1.30;;
64966;SDS011;51710;38.732;-121.358;2023-05-07T09:34:48;2.67;;;1.40;;
64966;SDS011;51710;38.732;-121.358;2023-05-07T09:37:14;4.95;;;1.15;;
64966;SDS011;51710;38.732;-121.358;2023-05-07T09:39:45;2.90;;;1.20;;
64966;SDS011;51710;38.732;-121.358;2023-05-07T09:42:13;6.85;;;1.40;;
64966;SDS011;51710;38.732;-121.358;2023-05-07T09:44:45;3.05;;;1.20;;
64966;SDS011;51710;38.732;-121.358;2023-05-07T09:47:13;3.40;;;1.15;;
64966;SDS011;51710;38.732;-121.358;2023-05-07T09:49:47;4.13;;;1.13;;
64966;SDS011;51710;38.732;-121.358;2023-05-07T09:52:13;3.13;;;1.30;;
64966;SDS011;51710;38.732;-121.358;2023-05-07T09:54:40;2.28;;;1.20;;
64966;SDS011;51710;38.732;-121.358;2023-05-07T09:57:10;2.72;;;1.13;;
64966;SDS011;51710;38.732;-121.358;2023-05-07T09:59:37;3.35;;;1.25;;
64966;SDS011;51710;38.732;-121.358;2023-05-07T10:02:04;2.13;;;1.40;;
64966;SDS011;51710;38.732;-121.358;2023-05-07T10:04:31;3.35;;;1.05;;
64966;SDS011;51710;38.732;-121.358;2023-05-07T10:06:59;2.25;;;1.20;;
64966;SDS011;51710;38.732;-121.358;2023-05-07T10:09:26;2.00;;;1.17;;
64966;SDS011;51710;38.732;-121.358;2023-05-07T10:11:52;4.18;;;1.35;;
64966;SDS011;51710;38.732;-121.358;2023-05-07T10:14:20;3.03;;;1.30;;
64966;SDS011;51710;38.732;-121.358;2023-05-07T10:16:47;3.90;;;1.27;;
64966;SDS011;51710;38.732;-121.358;2023-05-07T10:19:14;3.38;;;1.73;;
64966;SDS011;51710;38.732;-121.358;2023-05-07T10:24:18;3.80;;;1.55;;
64966;SDS011;51710;38.732;-121.358;2023-05-07T10:26:48;3.65;;;1.20;;
64966;SDS011;51710;38.732;-121.358;2023-05-07T10:32:14;2.47;;;1.23;;
64966;SDS011;51710;38.732;-121.358;2023-05-07T10:34:59;4.20;;;1.30;;
64966;SDS011;51710;38.732;-121.358;2023-05-07T10:37:27;3.45;;;1.60;;
64966;SDS011;51710;38.732;-121.358;2023-05-07T10:39:54;3.25;;;1.33;;
64966;SDS011;51710;38.732;-121.358;2023-05-07T10:42:20;3.38;;;1.33;;
64966;SDS011;51710;38.732;-121.358;2023-05-07T10:44:47;4.57;;;1.35;;
64966;SDS011;51710;38.732;-121.358;2023-05-07T10:47:14;2.28;;;1.25;;
64966;SDS011;51710;38.732;-121.358;2023-05-07T10:52:13;2.22;;;1.27;;
64966;SDS011;51710;38.732;-121.358;2023-05-07T10:57:42;6.90;;;1.33;;
64966;SDS011;51710;38.732;-121.358;2023-05-07T11:05:31;4.88;;;1.27;;
64966;SDS011;51710;38.732;-121.358;2023-05-07T11:07:59;6.43;;;1.60;;
64966;SDS011;51710;38.732;-121.358;2023-05-07T11:13:41;3.97;;;1.55;;
64966;SDS011;51710;38.732;-121.358;2023-05-07T11:16:18;2.28;;;1.30;;
64966;SDS011;51710;38.732;-121.358;2023-05-07T11:18:47;5.70;;;1.63;;
64966;SDS011;51710;38.732;-121.358;2023-05-07T11:21:33;2.50;;;1.23;;
64966;SDS011;51710;38.732;-121.358;2023-05-07T11:24:00;3.55;;;1.30;;
64966;SDS011;51710;38.732;-121.358;2023-05-07T11:26:29;3.30;;;1.33;;
64966;SDS011;51710;38.732;-121.358;2023-05-07T11:28:56;4.43;;;1.50;;
64966;SDS011;51710;38.732;-121.358;2023-05-07T11:31:26;3.60;;;1.30;;
64966;SDS011;51710;38.732;-121.358;2023-05-07T11:33:54;2.28;;;1.30;;
64966;SDS011;51710;38.732;-121.358;2023-05-07T11:36:21;2.88;;;1.50;;
64966;SDS011;51710;38.732;-121.358;2023-05-07T11:38:48;2.65;;;1.30;;
64966;SDS011;51710;38.732;-121.358;2023-05-07T11:41:15;3.78;;;1.60;;
64966;SDS011;51710;38.732;-121.358;2023-05-07T11:43:58;2.85;;;1.38;;
64966;SDS011;51710;38.732;-121.358;2023-05-07T11:46:26;3.55;;;1.20;;
64966;SDS011;51710;38.732;-121.358;2023-05-07T11:48:53;2.80;;;1.27;;
64966;SDS011;51710;38.732;-121.358;2023-05-07T11:51:20;2.35;;;1.50;;
64966;SDS011;51710;38.732;-121.358;2023-05-07T11:53:48;3.28;;;1.40;;
64966;SDS011;51710;38.732;-121.358;2023-05-07T11:56:16;2.30;;;1.65;;
64966;SDS011;51710;38.732;-121.358;2023-05-07T11:58:44;2.47;;;1.35;;
64966;SDS011;51710;38.732;-121.358;2023-05-07T12:01:12;4.53;;;1.42;;
64966;SDS011;51710;38.732;-121.358;2023-05-07T12:03:40;3.47;;;1.45;;
64966;SDS011;51710;38.732;-121.358;2023-05-07T12:06:08;4.25;;;1.60;;
64966;SDS011;51710;38.732;-121.358;2023-05-07T12:08:39;3.45;;;1.60;;
64966;SDS011;51710;38.732;-121.358;2023-05-07T12:11:06;6.20;;;1.52;;
64966;SDS011;51710;38.732;-121.358;2023-05-07T12:13:35;5.20;;;2.03;;
64966;SDS011;51710;38.732;-121.358;2023-05-07T12:16:01;1.77;;;1.13;;
64966;SDS011;51710;38.732;-121.358;2023-05-07T12:18:29;1.85;;;1.20;;
64966;SDS011;51710;38.732;-121.358;2023-05-07T12:20:56;5.80;;;1.60;;
64966;SDS011;51710;38.732;-121.358;2023-05-07T12:23:24;3.15;;;1.52;;
64966;SDS011;51710;38.732;-121.358;2023-05-07T12:25:51;2.78;;;1.60;;
64966;SDS011;51710;38.732;-121.358;2023-05-07T12:28:17;3.85;;;1.50;;
64966;SDS011;51710;38.732;-121.358;2023-05-07T12:30:45;2.92;;;1.83;;
64966;SDS011;51710;38.732;-121.358;2023-05-07T12:33:17;5.07;;;1.65;;
64966;SDS011;51710;38.732;-121.358;2023-05-07T12:35:47;2.92;;;1.30;;
64966;SDS011;51710;38.732;-121.358;2023-05-07T12:38:14;4.18;;;1.75;;
64966;SDS011;51710;38.732;-121.358;2023-05-07T12:40:43;3.42;;;1.50;;
64966;SDS011;51710;38.732;-121.358;2023-05-07T12:43:20;2.80;;;1.50;;
64966;SDS011;51710;38.732;-121.358;2023-05-07T12:45:50;3.65;;;1.73;;
64966;SDS011;51710;38.732;-121.358;2023-05-07T12:48:17;2.95;;;1.52;;
64966;SDS011;51710;38.732;-121.358;2023-05-07T12:50:48;2.22;;;1.50;;
64966;SDS011;51710;38.732;-121.358;2023-05-07T12:53:20;2.42;;;1.50;;
64966;SDS011;51710;38.732;-121.358;2023-05-07T12:55:49;3.17;;;1.45;;
64966;SDS011;51710;38.732;-121.358;2023-05-07T13:00:47;2.65;;;1.95;;
64966;SDS011;51710;38.732;-121.358;2023-05-07T13:03:22;2.78;;;1.98;;
64966;SDS011;51710;38.732;-121.358;2023-05-07T13:05:49;4.15;;;1.67;;
64966;SDS011;51710;38.732;-121.358;2023-05-07T13:08:26;3.15;;;1.67;;
64966;SDS011;51710;38.732;-121.358;2023-05-07T13:10:55;4.10;;;2.53;;
64966;SDS011;51710;38.732;-121.358;2023-05-07T13:13:22;3.10;;;1.50;;
64966;SDS011;51710;38.732;-121.358;2023-05-07T13:15:48;6.22;;;1.90;;
64966;SDS011;51710;38.732;-121.358;2023-05-07T13:18:15;4.05;;;1.50;;
64966;SDS011;51710;38.732;-121.358;2023-05-07T13:20:41;4.30;;;1.75;;
64966;SDS011;51710;38.732;-121.358;2023-05-07T13:23:07;3.60;;;1.63;;
64966;SDS011;51710;38.732;-121.358;2023-05-07T13:25:33;4.57;;;1.85;;
64966;SDS011;51710;38.732;-121.358;2023-05-07T13:28:00;3.47;;;1.70;;
64966;SDS011;51710;38.732;-121.358;2023-05-07T13:30:26;5.57;;;2.05;;
64966;SDS011;51710;38.732;-121.358;2023-05-07T13:32:54;6.28;;;1.83;;
64966;SDS011;51710;38.732;-121.358;2023-05-07T13:35:21;4.03;;;1.65;;
64966;SDS011;51710;38.732;-121.358;2023-05-07T13:37:48;5.97;;;1.55;;
64966;SDS011;51710;38.732;-121.358;2023-05-07T13:40:14;6.55;;;1.85;;
64966;SDS011;51710;38.732;-121.358;2023-05-07T13:42:41;4.72;;;1.63;;
64966;SDS011;51710;38.732;-121.358;2023-05-07T13:45:07;5.90;;;1.60;;
64966;SDS011;51710;38.732;-121.358;2023-05-07T13:47:34;2.50;;;1.40;;
64966;SDS011;51710;38.732;-121.358;2023-05-07T13:50:00;5.22;;;1.50;;
64966;SDS011;51710;38.732;-121.358;2023-05-07T13:52:26;3.13;;;1.70;;
64966;SDS011;51710;38.732;-121.358;2023-05-07T13:54:53;4.43;;;1.40;;
64966;SDS011;51710;38.732;-121.358;2023-05-07T13:57:20;2.30;;;1.45;;
64966;SDS011;51710;38.732;-121.358;2023-05-07T13:59:46;4.90;;;2.28;;
64966;SDS011;51710;38.732;-121.358;2023-05-07T14:02:12;4.20;;;1.80;;
64966;SDS011;51710;38.732;-121.358;2023-05-07T14:04:39;3.35;;;1.40;;
64966;SDS011;51710;38.732;-121.358;2023-05-07T14:07:05;5.65;;;1.55;;
64966;SDS011;51710;38.732;-121.358;2023-05-07T14:09:31;4.13;;;1.50;;
64966;SDS011;51710;38.732;-121.358;2023-05-07T14:11:58;4.90;;;2.05;;
64966;SDS011;51710;38.732;-121.358;2023-05-07T14:14:24;5.05;;;1.85;;
64966;SDS011;51710;38.732;-121.358;2023-05-07T14:16:50;11.18;;;2.05;;
64966;SDS011;51710;38.732;-121.358;2023-05-07T14:19:17;6.05;;;1.50;;
64966;SDS011;51710;38.732;-121.358;2023-05-07T14:21:43;3.42;;;1.40;;
64966;SDS011;51710;38.732;-121.358;2023-05-07T14:24:09;2.83;;;1.35;;
64966;SDS011;51710;38.732;-121.358;2023-05-07T14:26:36;3.15;;;1.83;;
64966;SDS011;51710;38.732;-121.358;2023-05-07T14:29:02;3.55;;;1.30;;
64966;SDS011;51710;38.732;-121.358;2023-05-07T14:31:28;4.05;;;1.50;;